Thunder radar more information blitzortung!


Radar de pluja more information rain snow radar


Visita la nostra xarxa de llocs de meteo:

Template documentation
and downloads

And another site



No particular awareness of the weather is required.    There are no Weather-warnings

Pagina Historial Weather Underground text

Diari Resum January 2, 2018 Unitats:  Imperial    Mètric   Tant
« Previous Dia
SegĂźent Dia »
Diari Setmana Mensual Anual Personalitzada
  Maxima: Minima: Media:
Temperatura: TemperatureC °F 7.8 °F 13.3 °F
Punt de rosada: DewpointC °F 0.5 °F 5.4 °F
Humitat: Humidity % 52 % 59 %
Wind Speed: WindSpeedKMH mph 0.0 mph 6.5 mph
RĂ fegues de vent: WindSpeedGustKMH mph - -
Vent:- - SW
Pression baro: PressurehPa in 1020.9 in -
Precipitacions: 0.0 in    
Historical Graphs
 
 
Dades de taula per January 2, 2018
Temps Temperatura Punt de rosada Pression baro Vent Wind Speed RĂ fegues de vent Humitat Rainfall Rate (Hourly)
TemperatureC °F DewpointC °F PressurehPa in Calm     Humidity % HourlyPrecipMM in
00:02 10.9 °F 2.4 °F 1020.9 in WNW 20.4 mph 20.4 mph 56 % 0.0 in
00:04 10.9 °F 2.4 °F 1020.9 in WNW 13.0 mph 13.0 mph 56 % 0.0 in
00:05 8.7 °F 1.1 °F 1021.9 in West 4.8 mph 6.4 mph 59 % 0.0 in
00:15 8.6 °F 1.1 °F 1021.9 in West 8.0 mph 8.0 mph 59 % 0.0 in
00:25 8.5 °F 0.9 °F 1021.9 in West 4.8 mph 6.4 mph 59 % 0.0 in
00:45 8.5 °F 0.9 °F 1021.9 in WSW 3.2 mph 8.0 mph 59 % 0.0 in
00:55 8.4 °F 0.8 °F 1021.9 in West 3.2 mph 6.4 mph 59 % 0.0 in
01:05 7.9 °F 0.6 °F 1022.9 in WSW 3.2 mph 3.2 mph 60 % 0.0 in
01:25 8.2 °F 0.9 °F 1022.9 in WSW 1.6 mph 4.8 mph 60 % 0.0 in
01:45 8.1 °F 0.8 °F 1022.9 in WNW 1.6 mph 3.2 mph 60 % 0.0 in
01:55 7.9 °F 0.6 °F 1022.9 in Calm   3.2 mph 60 % 0.0 in
02:05 7.8 °F 0.5 °F 1023.9 in WNW 3.2 mph 3.2 mph 60 % 0.0 in
02:25 8.3 °F 1.0 °F 1023.9 in WSW 1.6 mph 4.8 mph 60 % 0.0 in
02:35 8.5 °F 1.4 °F 1023.9 in WSW 4.8 mph 8.0 mph 61 % 0.0 in
02:45 8.5 °F 1.4 °F 1023.9 in WSW 3.2 mph 6.4 mph 61 % 0.0 in
03:05 8.9 °F 1.8 °F 1023.9 in WSW 3.2 mph 9.7 mph 61 % 0.0 in
03:25 9.6 °F 2.4 °F 1023.9 in WSW 3.2 mph 4.8 mph 61 % 0.0 in
03:35 10.0 °F 2.8 °F 1023.9 in SW 4.8 mph 4.8 mph 61 % 0.0 in
03:45 10.0 °F 2.8 °F 1023.9 in WSW 3.2 mph 9.7 mph 61 % 0.0 in
03:55 9.9 °F 2.7 °F 1022.9 in Calm   4.8 mph 61 % 0.0 in
04:05 10.0 °F 2.8 °F 1023.9 in Calm   3.2 mph 61 % 0.0 in
04:15 10.0 °F 2.8 °F 1023.9 in West 3.2 mph 4.8 mph 61 % 0.0 in
04:25 10.5 °F 3.3 °F 1023.9 in West 3.2 mph 6.4 mph 61 % 0.0 in
04:35 10.2 °F 2.6 °F 1023.9 in NW 4.8 mph 6.4 mph 59 % 0.0 in
10:39 10.3 °F 2.4 °F 1024.9 in NNE 7.4 mph 7.4 mph 58 % 0.0 in
10:41 10.3 °F 2.4 °F 1024.9 in ENE 7.4 mph 7.4 mph 58 % 0.0 in
10:46 10.3 °F 2.4 °F 1024.9 in NNE 3.7 mph 3.7 mph 58 % 0.0 in
10:47 10.3 °F 2.4 °F 1024.9 in WNW 5.6 mph 5.6 mph 58 % 0.0 in
10:52 10.0 °F 2.1 °F 1024.9 in ENE 5.6 mph 5.6 mph 58 % 0.0 in
10:57 9.9 °F 2.0 °F 1024.9 in North 7.4 mph 7.4 mph 58 % 0.0 in
11:02 9.9 °F 2.0 °F 1024.9 in NE 3.9 mph 3.9 mph 58 % 0.0 in
11:05 10.1 °F 2.2 °F 1024.9 in ENE 5.6 mph 5.6 mph 58 % 0.0 in
11:08 10.1 °F 2.2 °F 1024.9 in ENE 3.7 mph 3.9 mph 58 % 0.0 in
11:13 10.2 °F 2.3 °F 1024.9 in SE 3.9 mph 3.9 mph 58 % 0.0 in
11:14 10.2 °F 2.3 °F 1024.9 in ESE 3.7 mph 3.7 mph 58 % 0.0 in
11:19 10.2 °F 2.1 °F 1024.9 in NNE 5.6 mph 5.6 mph 57 % 0.0 in
11:20 10.2 °F 2.1 °F 1024.9 in NE 4.2 mph 4.2 mph 57 % 0.0 in
11:25 10.1 °F 1.9 °F 1023.9 in NNE 3.7 mph 3.7 mph 57 % 0.0 in
11:28 10.1 °F 1.9 °F 1023.9 in East 3.7 mph 3.7 mph 57 % 0.0 in
11:31 10.1 °F 1.9 °F 1023.9 in ENE 5.6 mph 5.6 mph 57 % 0.0 in
11:36 10.0 °F 1.9 °F 1023.9 in NE 7.4 mph 7.4 mph 57 % 0.0 in
11:41 10.0 °F 1.9 °F 1023.9 in ENE 9.3 mph 9.3 mph 57 % 0.0 in
11:46 10.2 °F 1.8 °F 1023.9 in NNE 9.5 mph 9.5 mph 56 % 0.0 in
11:47 10.1 °F 1.7 °F 1023.9 in ENE 11.1 mph 11.1 mph 56 % 0.0 in
11:49 10.2 °F 1.8 °F 1023.9 in NNE 9.3 mph 9.3 mph 56 % 0.0 in
11:52 10.6 °F 2.2 °F 1023.9 in NW 5.6 mph 5.6 mph 56 % 0.0 in
11:58 10.9 °F 2.4 °F 1023.9 in North 11.1 mph 11.1 mph 56 % 0.0 in
12:03 11.3 °F 2.8 °F 1023.9 in NE 5.6 mph 5.6 mph 56 % 0.0 in
12:07 11.4 °F 2.9 °F 1023.9 in NNE 5.6 mph 5.6 mph 56 % 0.0 in
12:10 11.6 °F 3.1 °F 1023.9 in ENE 10.0 mph 10.0 mph 56 % 0.0 in
12:15 12.0 °F 3.5 °F 1023.9 in West 7.4 mph 7.4 mph 56 % 0.0 in
12:16 12.1 °F 3.6 °F 1023.9 in NNW 5.6 mph 5.6 mph 56 % 0.0 in
12:20 12.1 °F 3.6 °F 1023.9 in WNW 7.4 mph 7.4 mph 56 % 0.0 in
12:21 12.1 °F 3.6 °F 1023.9 in ESE 3.7 mph 3.7 mph 56 % 0.0 in
12:24 12.6 °F 4.1 °F 1023.9 in NNE 4.2 mph 4.2 mph 56 % 0.0 in
12:27 12.5 °F 3.9 °F 1023.9 in NNE 9.3 mph 9.3 mph 56 % 0.0 in
12:31 13.2 °F 4.8 °F 1023.9 in NNE 7.4 mph 7.4 mph 57 % 0.0 in
12:32 13.3 °F 4.7 °F 1023.9 in East 7.4 mph 7.4 mph 56 % 0.0 in
12:38 13.5 °F 4.9 °F 1023.9 in NNW 7.4 mph 7.4 mph 56 % 0.0 in
12:43 14.0 °F 5.3 °F 1023.9 in NNW 9.3 mph 9.3 mph 56 % 0.0 in
12:46 14.5 °F 6.1 °F 1023.9 in NW 5.6 mph 5.6 mph 57 % 0.0 in
12:48 14.6 °F 6.2 °F 1023.9 in West 9.7 mph 9.7 mph 57 % 0.0 in
12:53 14.8 °F 6.1 °F 1023.9 in West 7.4 mph 7.4 mph 56 % 0.0 in
13:00 15.0 °F 6.3 °F 1023.9 in West 7.9 mph 7.9 mph 56 % 0.0 in
13:05 15.2 °F 6.2 °F 1023.9 in WNW 20.6 mph 20.6 mph 55 % 0.0 in
13:10 15.1 °F 6.1 °F 1023.9 in WNW 13.0 mph 13.0 mph 55 % 0.0 in
13:16 15.2 °F 6.2 °F 1023.9 in WSW 5.6 mph 6.9 mph 55 % 0.0 in
13:17 15.2 °F 6.2 °F 1023.9 in West 7.4 mph 7.4 mph 55 % 0.0 in
13:19 15.4 °F 6.4 °F 1023.9 in NW 9.5 mph 9.5 mph 55 % 0.0 in
13:23 15.4 °F 6.1 °F 1023.9 in WSW 13.0 mph 13.0 mph 54 % 0.0 in
13:28 15.5 °F 6.2 °F 1023.9 in West 7.4 mph 7.4 mph 54 % 0.0 in
13:33 15.9 °F 6.6 °F 1023.9 in NNW 11.1 mph 11.1 mph 54 % 0.0 in
13:38 15.8 °F 6.5 °F 1022.9 in WNW 11.1 mph 11.1 mph 54 % 0.0 in
13:40 15.8 °F 6.5 °F 1022.9 in WNW 9.5 mph 9.5 mph 54 % 0.0 in
13:43 15.7 °F 6.4 °F 1022.9 in West 13.0 mph 13.0 mph 54 % 0.0 in
13:46 15.8 °F 6.5 °F 1022.9 in WNW 9.3 mph 9.3 mph 54 % 0.0 in
13:51 15.7 °F 6.2 °F 1022.9 in West 16.7 mph 16.7 mph 53 % 0.0 in
13:53 15.6 °F 6.1 °F 1022.9 in West 16.7 mph 16.7 mph 53 % 0.0 in
13:58 15.5 °F 5.9 °F 1022.9 in NW 11.1 mph 11.1 mph 53 % 0.0 in
14:04 15.7 °F 6.2 °F 1022.9 in West 9.7 mph 9.7 mph 53 % 0.0 in
14:08 15.7 °F 6.2 °F 1021.9 in ENE 13.0 mph 13.0 mph 53 % 0.0 in
14:09 15.7 °F 6.2 °F 1021.9 in NW 7.4 mph 7.4 mph 53 % 0.0 in
14:15 15.7 °F 6.2 °F 1021.9 in NW 16.7 mph 16.7 mph 53 % 0.0 in
14:17 15.8 °F 6.2 °F 1021.9 in West 10.3 mph 10.3 mph 53 % 0.0 in
14:20 15.7 °F 6.2 °F 1021.9 in NNE 9.3 mph 9.3 mph 53 % 0.0 in
14:25 15.8 °F 6.2 °F 1022.9 in WNW 11.1 mph 11.1 mph 53 % 0.0 in
14:30 15.8 °F 6.2 °F 1022.9 in WSW 13.0 mph 13.0 mph 53 % 0.0 in
14:31 15.7 °F 6.2 °F 1022.9 in WSW 13.0 mph 13.0 mph 53 % 0.0 in
14:36 15.7 °F 6.2 °F 1022.9 in WNW 14.8 mph 14.8 mph 53 % 0.0 in
14:37 15.7 °F 6.2 °F 1022.9 in SW 9.3 mph 9.3 mph 53 % 0.0 in
14:44 16.0 °F 6.4 °F 1022.9 in West 5.6 mph 5.6 mph 53 % 0.0 in
14:49 15.8 °F 6.2 °F 1022.9 in WNW 16.7 mph 16.7 mph 53 % 0.0 in
14:54 16.0 °F 6.4 °F 1022.9 in WSW 11.1 mph 11.1 mph 53 % 0.0 in
14:56 16.0 °F 6.4 °F 1022.9 in West 7.4 mph 7.4 mph 53 % 0.0 in
15:02 16.3 °F 6.7 °F 1022.9 in WSW 7.4 mph 7.4 mph 53 % 0.0 in
15:03 16.4 °F 6.8 °F 1022.9 in NW 7.4 mph 7.4 mph 53 % 0.0 in
15:07 16.5 °F 6.9 °F 1022.9 in West 9.3 mph 9.3 mph 53 % 0.0 in
15:12 16.5 °F 6.9 °F 1022.9 in SW 5.8 mph 5.8 mph 53 % 0.0 in
15:13 16.5 °F 6.9 °F 1022.9 in SSE 5.8 mph 5.8 mph 53 % 0.0 in
15:18 16.6 °F 7.0 °F 1022.9 in WNW 7.4 mph 7.4 mph 53 % 0.0 in
15:21 16.6 °F 7.0 °F 1022.9 in South 20.4 mph 20.4 mph 53 % 0.0 in
15:24 16.3 °F 6.4 °F 1022.9 in West 14.8 mph 14.8 mph 52 % 0.0 in
15:27 16.2 °F 6.3 °F 1022.9 in West 9.3 mph 9.3 mph 52 % 0.0 in
15:31 16.2 °F 6.3 °F 1022.9 in West 11.1 mph 11.1 mph 52 % 0.0 in
15:35 16.1 °F 6.2 °F 1022.9 in West 9.3 mph 9.3 mph 52 % 0.0 in
15:36 16.1 °F 6.2 °F 1022.9 in WSW 14.8 mph 14.8 mph 52 % 0.0 in
15:40 15.9 °F 6.1 °F 1022.9 in SW 13.7 mph 13.7 mph 52 % 0.0 in
15:44 16.0 °F 6.2 °F 1022.9 in SW 11.1 mph 11.1 mph 52 % 0.0 in
15:49 16.1 °F 6.5 °F 1022.9 in West 13.0 mph 13.0 mph 53 % 0.0 in
15:50 16.1 °F 6.5 °F 1022.9 in WSW 11.3 mph 16.1 mph 53 % 0.0 in
15:55 16.3 °F 6.7 °F 1022.9 in North 5.6 mph 5.6 mph 53 % 0.0 in
15:57 16.3 °F 6.7 °F 1022.9 in WSW 6.4 mph 6.4 mph 53 % 0.0 in
16:02 16.5 °F 6.9 °F 1022.9 in SW 7.4 mph 7.4 mph 53 % 0.0 in
16:05 16.6 °F 7.0 °F 1022.9 in SSW 9.7 mph 9.7 mph 53 % 0.0 in
16:10 16.5 °F 6.9 °F 1022.9 in West 6.4 mph 6.4 mph 53 % 0.0 in
16:14 16.2 °F 6.6 °F 1022.9 in WNW 9.5 mph 9.5 mph 53 % 0.0 in
16:16 16.1 °F 6.5 °F 1022.9 in SW 11.1 mph 11.1 mph 53 % 0.0 in
16:20 16.2 °F 6.6 °F 1022.9 in WNW 7.4 mph 7.4 mph 53 % 0.0 in
16:25 16.3 °F 6.7 °F 1022.9 in WNW 13.0 mph 13.0 mph 53 % 0.0 in
16:28 16.3 °F 6.7 °F 1022.9 in SW 11.9 mph 11.9 mph 53 % 0.0 in
16:33 16.3 °F 6.7 °F 1022.9 in WSW 13.0 mph 13.0 mph 53 % 0.0 in
16:39 16.4 °F 6.8 °F 1022.9 in South 4.2 mph 4.2 mph 53 % 0.0 in
16:44 16.2 °F 6.6 °F 1022.9 in West 11.1 mph 11.1 mph 53 % 0.0 in
16:47 16.2 °F 6.6 °F 1022.9 in WSW 7.4 mph 7.4 mph 53 % 0.0 in
16:52 16.1 °F 6.5 °F 1022.9 in West 7.4 mph 7.4 mph 53 % 0.0 in
16:53 16.1 °F 6.5 °F 1022.9 in SW 6.9 mph 6.9 mph 53 % 0.0 in
16:58 16.0 °F 6.4 °F 1022.9 in WSW 9.3 mph 9.3 mph 53 % 0.0 in
17:02 15.9 °F 6.3 °F 1022.9 in West 3.7 mph 4.7 mph 53 % 0.0 in
17:04 15.8 °F 6.2 °F 1022.9 in WSW 5.0 mph 5.0 mph 53 % 0.0 in
17:10 15.5 °F 6.2 °F 1022.9 in West 5.6 mph 5.6 mph 54 % 0.0 in
17:11 15.5 °F 6.2 °F 1022.9 in SW 5.0 mph 5.0 mph 54 % 0.0 in
17:15 15.4 °F 6.1 °F 1022.9 in WNW 7.4 mph 7.4 mph 54 % 0.0 in
17:18 15.3 °F 6.1 °F 1022.9 in WSW 5.6 mph 5.6 mph 54 % 0.0 in
17:22 15.2 °F 5.9 °F 1022.9 in West 9.3 mph 9.3 mph 54 % 0.0 in
17:26 15.1 °F 5.8 °F 1022.9 in WSW 5.6 mph 5.6 mph 54 % 0.0 in
17:34 14.9 °F 5.9 °F 1022.9 in WNW 3.7 mph 3.7 mph 55 % 0.0 in
17:39 14.8 °F 5.8 °F 1022.9 in WNW 5.6 mph 5.6 mph 55 % 0.0 in
17:44 14.8 °F 5.8 °F 1022.9 in West 5.6 mph 5.6 mph 55 % 0.0 in
17:49 14.7 °F 5.7 °F 1022.9 in WSW 3.7 mph 3.7 mph 55 % 0.0 in
17:50 14.6 °F 5.7 °F 1022.9 in West 3.7 mph 3.7 mph 55 % 0.0 in
17:51 14.6 °F 5.7 °F 1022.9 in West 6.4 mph 6.4 mph 55 % 0.0 in
17:55 14.6 °F 5.9 °F 1022.9 in SSW 3.7 mph 3.7 mph 56 % 0.0 in
17:58 14.5 °F 5.8 °F 1022.9 in SW 3.7 mph 3.7 mph 56 % 0.0 in
18:02 14.5 °F 5.8 °F 1022.9 in WSW 5.6 mph 5.6 mph 56 % 0.0 in
18:07 14.3 °F 5.6 °F 1022.9 in SSW 3.7 mph 3.7 mph 56 % 0.0 in
18:13 14.3 °F 5.9 °F 1022.9 in South 3.9 mph 3.9 mph 57 % 0.0 in
18:18 14.2 °F 5.8 °F 1022.9 in SW 3.7 mph 3.7 mph 57 % 0.0 in
18:22 14.2 °F 5.8 °F 1022.9 in WNW 7.4 mph 7.4 mph 57 % 0.0 in
18:27 14.3 °F 5.9 °F 1022.9 in West 6.1 mph 6.1 mph 57 % 0.0 in
18:28 14.3 °F 5.9 °F 1022.9 in WSW 7.4 mph 7.4 mph 57 % 0.0 in
18:30 12.5 °F 6.6 °F 1022.9 in WSW 1.6 mph 6.4 mph 67 % 0.0 in
18:32 14.3 °F 5.9 °F 1022.9 in WSW 5.6 mph 5.6 mph 57 % 0.0 in
18:36 14.2 °F 5.8 °F 1022.9 in SW 4.7 mph 4.7 mph 57 % 0.0 in
18:40 14.2 °F 5.8 °F 1022.9 in WSW 7.4 mph 7.4 mph 57 % 0.0 in
18:42 14.2 °F 5.8 °F 1022.9 in SW 4.2 mph 4.2 mph 57 % 0.0 in
18:45 14.1 °F 5.7 °F 1022.9 in WSW 7.4 mph 7.4 mph 57 % 0.0 in
18:49 14.0 °F 5.6 °F 1022.9 in West 7.4 mph 7.4 mph 57 % 0.0 in
18:50 12.7 °F 6.7 °F 1022.9 in WSW 1.6 mph 3.2 mph 67 % 0.0 in
18:51 13.9 °F 5.5 °F 1022.9 in WSW 9.3 mph 9.3 mph 57 % 0.0 in
18:56 13.9 °F 5.8 °F 1022.9 in West 5.6 mph 5.6 mph 58 % 0.0 in
18:57 13.9 °F 5.8 °F 1022.9 in WSW 5.6 mph 5.6 mph 58 % 0.0 in
19:00 12.8 °F 6.8 °F 1022.9 in West 3.2 mph 3.2 mph 67 % 0.0 in
19:01 13.9 °F 5.8 °F 1022.9 in WSW 7.4 mph 7.4 mph 58 % 0.0 in
19:03 13.9 °F 5.8 °F 1022.9 in WNW 7.4 mph 7.4 mph 58 % 0.0 in
19:08 13.9 °F 6.0 °F 1021.9 in WSW 9.3 mph 9.3 mph 59 % 0.0 in
19:10 12.8 °F 7.1 °F 1022.9 in West 1.6 mph 4.8 mph 68 % 0.0 in
19:13 14.0 °F 6.1 °F 1021.9 in West 3.9 mph 3.9 mph 59 % 0.0 in
19:18 13.9 °F 6.0 °F 1021.9 in West 7.4 mph 7.4 mph 59 % 0.0 in
19:19 13.9 °F 6.0 °F 1021.9 in West 5.6 mph 5.6 mph 59 % 0.0 in
19:20 12.8 °F 6.8 °F 1022.9 in Calm   3.2 mph 67 % 0.0 in
19:24 13.8 °F 5.9 °F 1022.9 in WSW 7.4 mph 7.4 mph 59 % 0.0 in
19:25 13.8 °F 5.9 °F 1022.9 in WSW 5.6 mph 5.6 mph 59 % 0.0 in
19:30 13.9 °F 6.0 °F 1022.9 in West 3.2 mph 8.0 mph 59 % 0.0 in
19:31 13.9 °F 6.3 °F 1022.9 in West 5.8 mph 5.8 mph 60 % 0.0 in
19:35 13.9 °F 6.3 °F 1022.9 in WSW 5.6 mph 5.6 mph 60 % 0.0 in
19:38 13.9 °F 6.3 °F 1021.9 in WSW 5.8 mph 5.8 mph 60 % 0.0 in
19:42 14.0 °F 6.3 °F 1021.9 in West 11.1 mph 11.1 mph 60 % 0.0 in
19:47 14.0 °F 6.3 °F 1021.9 in West 5.6 mph 5.8 mph 60 % 0.0 in
19:50 12.4 °F 6.7 °F 1022.9 in Calm   1.6 mph 68 % 0.0 in
19:51 14.0 °F 6.3 °F 1021.9 in West 11.1 mph 11.1 mph 60 % 0.0 in
19:53 13.9 °F 6.3 °F 1021.9 in West 13.0 mph 13.0 mph 60 % 0.0 in
19:57 14.0 °F 6.6 °F 1021.9 in WNW 14.0 mph 14.0 mph 61 % 0.0 in
20:00 12.4 °F 6.7 °F 1022.9 in North 1.6 mph 3.2 mph 68 % 0.0 in
20:01 14.1 °F 6.7 °F 1021.9 in WSW 13.0 mph 13.0 mph 61 % 0.0 in
20:03 14.1 °F 6.7 °F 1021.9 in WSW 9.7 mph 9.7 mph 61 % 0.0 in
20:08 14.0 °F 6.6 °F 1021.9 in WSW 9.3 mph 9.3 mph 61 % 0.0 in
20:10 12.2 °F 6.4 °F 1022.9 in NE 1.6 mph 3.2 mph 68 % 0.0 in
20:13 13.9 °F 6.5 °F 1021.9 in West 7.9 mph 7.9 mph 61 % 0.0 in
20:17 13.9 °F 6.5 °F 1021.9 in West 7.4 mph 7.4 mph 61 % 0.0 in
20:18 13.9 °F 6.5 °F 1021.9 in West 9.3 mph 9.3 mph 61 % 0.0 in
20:23 13.8 °F 6.4 °F 1021.9 in West 7.4 mph 7.4 mph 61 % 0.0 in
20:24 13.8 °F 6.4 °F 1021.9 in WSW 5.6 mph 5.6 mph 61 % 0.0 in
20:26 13.8 °F 6.4 °F 1021.9 in West 7.9 mph 7.9 mph 61 % 0.0 in
20:30 11.4 °F 5.9 °F 1022.9 in NE 3.2 mph 4.8 mph 69 % 0.0 in
20:31 13.9 °F 6.7 °F 1021.9 in WNW 13.0 mph 13.0 mph 62 % 0.0 in
20:32 13.9 °F 6.7 °F 1021.9 in WSW 7.4 mph 7.4 mph 62 % 0.0 in
20:36 13.8 °F 6.7 °F 1021.9 in WSW 3.7 mph 3.7 mph 62 % 0.0 in
20:39 13.7 °F 6.6 °F 1021.9 in West 5.6 mph 5.6 mph 62 % 0.0 in
20:41 13.7 °F 6.6 °F 1021.9 in WSW 7.4 mph 7.4 mph 62 % 0.0 in
20:47 13.7 °F 6.6 °F 1021.9 in SSW 4.7 mph 4.7 mph 62 % 0.0 in
20:50 11.0 °F 5.5 °F 1022.9 in Calm   3.2 mph 69 % 0.0 in
20:52 13.7 °F 6.6 °F 1022.9 in West 5.6 mph 5.6 mph 62 % 0.0 in
20:53 13.7 °F 6.6 °F 1022.9 in WSW 5.6 mph 5.6 mph 62 % 0.0 in
20:54 13.7 °F 6.6 °F 1022.9 in WNW 5.6 mph 5.6 mph 62 % 0.0 in
20:59 13.7 °F 6.6 °F 1022.9 in WSW 7.4 mph 7.4 mph 62 % 0.0 in
21:00 11.2 °F 5.9 °F 1022.9 in ENE 1.6 mph 3.2 mph 70 % 0.0 in
21:04 13.6 °F 6.4 °F 1022.9 in West 5.8 mph 5.8 mph 62 % 0.0 in
21:05 13.7 °F 6.6 °F 1022.9 in West 9.3 mph 9.3 mph 62 % 0.0 in
21:07 13.7 °F 6.6 °F 1021.9 in WNW 7.4 mph 7.4 mph 62 % 0.0 in
21:11 13.6 °F 6.4 °F 1021.9 in WSW 7.4 mph 7.4 mph 62 % 0.0 in
21:13 13.6 °F 6.4 °F 1021.9 in SSW 6.1 mph 6.1 mph 62 % 0.0 in
21:18 13.5 °F 6.3 °F 1021.9 in WSW 4.7 mph 4.7 mph 62 % 0.0 in
21:20 13.5 °F 6.3 °F 1021.9 in NNE 11.1 mph 11.1 mph 62 % 0.0 in
21:26 13.5 °F 6.6 °F 1021.9 in ENE 1.9 mph   63 % 0.0 in
21:30 11.7 °F 6.6 °F 1023.9 in ESE 3.2 mph 4.8 mph 71 % 0.0 in
21:31 13.5 °F 6.6 °F 1021.9 in WNW 9.3 mph 9.3 mph 63 % 0.0 in
21:36 13.4 °F 6.5 °F 1021.9 in WSW 4.2 mph 4.2 mph 63 % 0.0 in
21:37 13.4 °F 6.5 °F 1021.9 in NNW 3.7 mph 3.7 mph 63 % 0.0 in
21:40 11.4 °F 6.1 °F 1023.9 in ESE 1.6 mph 6.4 mph 70 % 0.0 in
21:42 13.3 °F 6.4 °F 1021.9 in WSW 3.7 mph 3.7 mph 63 % 0.0 in
21:44 13.3 °F 6.4 °F 1021.9 in WSW 3.7 mph 3.7 mph 63 % 0.0 in
21:46 13.2 °F 6.3 °F 1021.9 in ENE 3.7 mph 3.7 mph 63 % 0.0 in
21:50 11.5 °F 6.2 °F 1022.9 in NE 1.6 mph 4.8 mph 70 % 0.0 in
21:51 13.1 °F 6.2 °F 1022.9 in SSE 5.6 mph   63 % 0.0 in
21:52 13.1 °F 6.2 °F 1022.9 in SSE 5.6 mph   63 % 0.0 in
21:53 13.1 °F 6.2 °F 1022.9 in West 3.9 mph 3.9 mph 63 % 0.0 in
21:58 13.1 °F 6.2 °F 1022.9 in SW 1.9 mph 1.9 mph 63 % 0.0 in
21:59 13.1 °F 6.4 °F 1022.9 in WSW 4.7 mph   64 % 0.0 in
22:00 11.9 °F 6.8 °F 1022.9 in NNE 3.2 mph 6.4 mph 71 % 0.0 in
22:04 13.2 °F 6.3 °F 1022.9 in WNW 6.1 mph 6.1 mph 63 % 0.0 in
22:05 13.2 °F 6.3 °F 1022.9 in West 5.6 mph 5.6 mph 63 % 0.0 in
22:10 13.2 °F 6.6 °F 1022.9 in SW 3.7 mph 3.7 mph 64 % 0.0 in
22:11 13.1 °F 6.4 °F 1022.9 in WNW 3.7 mph 3.7 mph 64 % 0.0 in
22:16 13.1 °F 6.4 °F 1022.9 in WSW 5.6 mph 5.6 mph 64 % 0.0 in
22:19 13.1 °F 6.4 °F 1022.9 in Calm     64 % 0.0 in
22:20 12.4 °F 7.1 °F 1023.9 in WNW 3.2 mph 4.8 mph 70 % 0.0 in
22:25 13.0 °F 6.3 °F 1022.9 in WSW 9.3 mph 9.3 mph 64 % 0.0 in
22:30 13.0 °F 6.3 °F 1022.9 in WSW 1.9 mph 1.9 mph 64 % 0.0 in
22:31 13.0 °F 6.3 °F 1022.9 in WSW 1.9 mph   64 % 0.0 in
22:36 12.8 °F 6.2 °F 1022.9 in SW 5.6 mph 5.6 mph 64 % 0.0 in
22:37 12.8 °F 6.2 °F 1022.9 in WSW 3.7 mph 3.7 mph 64 % 0.0 in
22:42 12.7 °F 6.1 °F 1022.9 in Calm     64 % 0.0 in
22:46 12.6 °F 5.9 °F 1022.9 in NNW 1.9 mph   64 % 0.0 in
22:50 12.6 °F 7.1 °F 1022.9 in West 3.2 mph 4.8 mph 69 % 0.0 in
22:51 12.6 °F 6.2 °F 1022.9 in West 1.9 mph 2.3 mph 65 % 0.0 in
22:54 12.6 °F 5.9 °F 1022.9 in West 3.7 mph 3.7 mph 64 % 0.0 in
22:57 12.5 °F 5.9 °F 1022.9 in West 4.7 mph 4.7 mph 64 % 0.0 in
23:00 12.6 °F 7.1 °F 1022.9 in WSW 3.2 mph 6.4 mph 69 % 0.0 in
23:02 12.5 °F 6.1 °F 1022.9 in NW 3.7 mph 3.7 mph 65 % 0.0 in
23:03 12.5 °F 6.1 °F 1022.9 in NW 1.9 mph 2.3 mph 65 % 0.0 in
23:07 12.5 °F 6.1 °F 1022.9 in North 3.7 mph 3.7 mph 65 % 0.0 in
23:09 12.5 °F 6.1 °F 1022.9 in West 2.6 mph 2.6 mph 65 % 0.0 in
23:12 12.5 °F 6.1 °F 1022.9 in WSW 2.3 mph 2.3 mph 65 % 0.0 in
23:16 12.5 °F 6.1 °F 1022.9 in WSW 3.7 mph 3.7 mph 65 % 0.0 in
23:17 12.5 °F 6.1 °F 1022.9 in WSW 3.7 mph 3.7 mph 65 % 0.0 in
23:20 12.5 °F 6.9 °F 1022.9 in West 3.2 mph 3.2 mph 69 % 0.0 in
23:27 12.4 °F 6.2 °F 1022.9 in West 1.9 mph 1.9 mph 66 % 0.0 in
23:28 12.4 °F 6.2 °F 1022.9 in West 1.9 mph   66 % 0.0 in
23:30 12.5 °F 6.9 °F 1022.9 in WSW 3.2 mph 4.8 mph 69 % 0.0 in
23:33 12.2 °F 6.1 °F 1022.9 in Calm     66 % 0.0 in
23:36 12.2 °F 6.1 °F 1022.9 in WNW 3.7 mph 3.7 mph 66 % 0.0 in
23:40 12.2 °F 6.1 °F 1022.9 in WSW 3.7 mph 3.7 mph 66 % 0.0 in
23:41 12.2 °F 6.1 °F 1022.9 in WSW 3.7 mph 3.7 mph 66 % 0.0 in
23:46 12.1 °F 5.9 °F 1022.9 in West 3.7 mph 3.7 mph 66 % 0.0 in
23:49 12.1 °F 5.9 °F 1022.9 in NNW 3.9 mph   66 % 0.0 in
23:50 12.3 °F 6.8 °F 1022.9 in WNW 3.2 mph 4.8 mph 69 % 0.0 in
23:51 12.2 °F 6.1 °F 1022.9 in West 3.7 mph 3.7 mph 66 % 0.0 in
23:56 12.2 °F 6.1 °F 1022.9 in South 7.4 mph 7.4 mph 66 % 0.0 in
23:59 12.3 °F 6.3 °F 1022.9 in WNW 5.6 mph 5.6 mph 67 % 0.0 in
Meteo Sesrovires
Elogis d' Weather Underground - 1.75 mb

Guio original per  Jim McMurry - jmcmurry@mwt.net Adaptat per a la plantilla per  Wim van der Kuil - Leuven-Template.eu

Trobareu la nostra informacio del temps tambe a:

Weather Underground

AWEKAS